KJKA Airport Information

Runway Information
Runway 09 Length 6962 ft width 100 ft
Elevation 14 ft Threshold 463 ft Heading 90
Runway 27 Length 6962 ft Width 100 ft
Elevation 16 ft Threshold 0 ft Heading 270
Runway 17 Length 3599 ft width 70 ft
Elevation 16 ft Threshold 0 ft Heading 175
Runway 35 Length 3599 ft Width 70 ft
Elevation 11 ft Threshold 0 ft Heading 355
Airport Frequencies
Type A/D Name PENSACOLA Frequency 120.05 MHZ
Type AWOS Name AWOS 3 Frequency 134.525 MHZ
Type CLD Name CLNC DEL Frequency 124.55 MHZ
Type UNIC Name CTAF/UNICO Frequency 122.7 MHZ
Airport Navaids
Airport Weather Information & NOTAM
ADDS - METARS form results

(1938 UTC 23 September 2018)
Data provider http://aviationweather.gov/metar/data/
 
METAR text: KJKA 231915Z AUTO 15008G14KT 10SM SCT025 30/24 A2995 RMK AO2 T02970236
Conditions at: KJKA (GULF SHORES , AL, US) observed 1915 UTC 23 September 2018
Temperature: 29.7°C (85°F)
Dewpoint: 23.6°C (74°F) [RH = 70%]
Pressure (altimeter): 29.95 inches Hg (1014.3 mb)
Winds: from the SSE (150 degrees) at 9 MPH (8 knots; 4.1 m/s)
gusting to 16 MPH (14 knots; 7.2 m/s)
Visibility: 10 or more miles (16+ km)
Ceiling: at least 12,000 feet AGL
Clouds: scattered clouds at 2500 feet AGL
Weather: automated observation with no human augmentation;
there may or may not be significant weather present at this time

METAR text: KJKA 231855Z AUTO 10010G17KT 10SM SCT025 30/24 A2996 RMK AO2 T03000236
Conditions at: KJKA (GULF SHORES , AL, US) observed 1855 UTC 23 September 2018
Temperature: 30.0°C (86°F)
Dewpoint: 23.6°C (74°F) [RH = 69%]
Pressure (altimeter): 29.96 inches Hg (1014.6 mb)
Winds: from the E (100 degrees) at 12 MPH (10 knots; 5.1 m/s)
gusting to 20 MPH (17 knots; 8.7 m/s)
Visibility: 10 or more miles (16+ km)
Ceiling: at least 12,000 feet AGL
Clouds: scattered clouds at 2500 feet AGL
Weather: automated observation with no human augmentation;
there may or may not be significant weather present at this time